createdAt,value
2023-01-29T00:01:16.190Z,8.10
2023-01-29T00:03:18.027Z,8.40
2023-01-29T00:05:28.481Z,8.67
2023-01-29T00:07:30.442Z,8.87
2023-01-29T00:09:34.417Z,8.10
2023-01-29T00:11:36.394Z,8.33
2023-01-29T00:13:38.174Z,7.80
2023-01-29T00:15:39.884Z,8.33
2023-01-29T00:17:41.518Z,8.13
2023-01-29T00:19:43.309Z,8.40
2023-01-29T00:21:47.269Z,9.40
2023-01-29T00:23:49.614Z,9.33
2023-01-29T00:25:51.431Z,10.43
2023-01-29T00:27:53.097Z,8.77
2023-01-29T00:30:12.741Z,8.07
2023-01-29T00:32:16.923Z,8.60
2023-01-29T00:34:19.241Z,8.37
2023-01-29T00:36:22.146Z,8.87
2023-01-29T00:38:26.451Z,9.03
2023-01-29T00:40:28.230Z,8.53
2023-01-29T00:42:48.445Z,8.40
2023-01-29T00:44:59.434Z,8.93
2023-01-29T00:47:03.900Z,9.63
2023-01-29T00:49:06.707Z,9.37
2023-01-29T00:51:08.408Z,9.23
2023-01-29T00:53:12.346Z,8.30
2023-01-29T00:55:14.233Z,8.47
2023-01-29T00:57:24.203Z,9.20
2023-01-29T00:59:25.827Z,8.67
2023-01-29T01:01:46.164Z,9.60
2023-01-29T01:03:47.860Z,9.03
2023-01-29T01:05:50.140Z,9.33
2023-01-29T01:07:54.572Z,8.23
2023-01-29T01:10:15.342Z,9.07
2023-01-29T01:12:17.318Z,8.87
2023-01-29T01:14:21.033Z,9.60
2023-01-29T01:16:24.912Z,8.60
2023-01-29T01:18:30.867Z,8.73
2023-01-29T01:20:42.501Z,9.57
2023-01-29T01:22:47.758Z,9.57
2023-01-29T01:24:50.649Z,9.63
2023-01-29T01:26:52.424Z,8.43
2023-01-29T01:28:54.192Z,8.90
2023-01-29T01:30:58.489Z,8.40
2023-01-29T01:33:03.573Z,7.97
2023-01-29T01:35:09.461Z,8.10
2023-01-29T01:37:11.929Z,8.37
2023-01-29T01:39:13.766Z,8.63
2023-01-29T01:41:18.734Z,8.20
2023-01-29T01:43:20.924Z,8.83
2023-01-29T01:45:33.026Z,8.73
2023-01-29T01:47:43.049Z,8.90
2023-01-29T01:49:47.652Z,8.30
2023-01-29T01:51:52.131Z,8.53
2023-01-29T01:54:03.619Z,8.87
2023-01-29T01:56:20.021Z,9.07
2023-01-29T01:58:29.477Z,8.80
2023-01-29T02:00:36.322Z,9.03
2023-01-29T02:02:59.509Z,9.47
2023-01-29T02:05:20.239Z,8.67
2023-01-29T02:07:40.356Z,9.03
2023-01-29T02:09:49.028Z,9.20
2023-01-29T02:11:51.408Z,8.57
2023-01-29T02:13:53.664Z,9.93
2023-01-29T02:16:01.452Z,9.43
2023-01-29T02:18:06.993Z,8.80
2023-01-29T02:20:17.953Z,8.63
2023-01-29T02:22:42.078Z,8.47
2023-01-29T02:25:09.773Z,8.80
2023-01-29T02:27:35.674Z,8.80
2023-01-29T02:29:52.976Z,9.13
2023-01-29T02:32:00.204Z,9.40
2023-01-29T02:34:10.831Z,8.93
2023-01-29T02:36:21.313Z,8.93
2023-01-29T02:39:00.564Z,9.47
2023-01-29T02:41:16.029Z,8.87
2023-01-29T02:43:41.834Z,9.53
2023-01-29T02:45:50.543Z,8.60
2023-01-29T02:47:59.411Z,9.67
2023-01-29T02:50:13.686Z,9.10
2023-01-29T02:52:23.190Z,8.63
2023-01-29T02:55:04.756Z,8.77
2023-01-29T02:57:17.785Z,8.23
2023-01-29T02:59:33.074Z,9.70
2023-01-29T03:01:56.922Z,10.30
2023-01-29T03:04:10.894Z,9.47
2023-01-29T03:06:28.790Z,9.60
2023-01-29T03:08:54.166Z,8.80
2023-01-29T03:11:04.057Z,9.10
2023-01-29T03:13:34.885Z,9.80
2023-01-29T03:15:47.365Z,9.50
2023-01-29T03:18:21.334Z,10.47
2023-01-29T03:20:32.052Z,10.33
2023-01-29T03:22:36.935Z,10.53
2023-01-29T03:25:12.515Z,10.17
2023-01-29T03:27:35.323Z,9.80
2023-01-29T03:29:58.716Z,11.20
2023-01-29T03:32:11.820Z,11.20
2023-01-29T03:34:23.956Z,10.97
2023-01-29T03:36:56.131Z,10.73
2023-01-29T03:38:58.033Z,9.73
2023-01-29T03:41:09.986Z,9.70
2023-01-29T03:43:22.639Z,9.93
2023-01-29T03:45:42.685Z,10.13
2023-01-29T03:48:07.758Z,9.83
2023-01-29T03:50:16.974Z,9.10
2023-01-29T03:52:31.087Z,9.37
2023-01-29T03:54:51.779Z,9.73
2023-01-29T03:56:59.293Z,9.07
2023-01-29T03:59:16.489Z,9.67
2023-01-29T04:01:48.790Z,9.23
2023-01-29T04:03:58.635Z,12.27
2023-01-29T04:06:21.164Z,9.00
2023-01-29T04:08:40.714Z,9.57
2023-01-29T04:10:44.937Z,9.57
2023-01-29T04:13:06.410Z,10.93
2023-01-29T04:15:15.131Z,10.23
2023-01-29T04:17:21.564Z,9.90
2023-01-29T04:19:38.455Z,10.47
2023-01-29T04:21:41.266Z,9.57
2023-01-29T04:23:43.284Z,9.20
2023-01-29T04:25:52.777Z,9.63
2023-01-29T04:28:28.764Z,8.80
2023-01-29T04:30:46.358Z,9.17
2023-01-29T04:33:26.837Z,9.23
2023-01-29T04:35:47.359Z,8.77
2023-01-29T04:38:12.349Z,8.67
2023-01-29T04:40:53.696Z,9.30
2023-01-29T04:43:01.473Z,9.07
2023-01-29T04:45:25.401Z,9.17
2023-01-29T04:47:48.217Z,9.00
2023-01-29T04:50:02.829Z,9.23
2023-01-29T04:52:21.817Z,9.60
2023-01-29T04:54:36.468Z,9.47
2023-01-29T04:56:55.866Z,9.30
2023-01-29T04:59:05.068Z,9.70
2023-01-29T05:01:10.873Z,8.73
2023-01-29T05:03:17.141Z,9.43
2023-01-29T05:05:24.353Z,10.60
2023-01-29T05:07:30.859Z,9.60
2023-01-29T05:09:33.825Z,10.57
2023-01-29T05:11:36.966Z,9.80
2023-01-29T05:13:40.758Z,8.90
2023-01-29T05:15:50.590Z,10.60
2023-01-29T05:17:54.454Z,9.47
2023-01-29T05:19:57.069Z,9.80
2023-01-29T05:21:59.563Z,9.57
2023-01-29T05:24:20.760Z,11.03
2023-01-29T05:26:44.461Z,10.57
2023-01-29T05:28:46.174Z,11.80
2023-01-29T05:30:51.345Z,11.43
2023-01-29T05:32:55.274Z,10.67
2023-01-29T05:34:56.955Z,10.33
2023-01-29T05:36:58.685Z,11.07
2023-01-29T05:39:00.412Z,10.70
2023-01-29T05:41:04.580Z,10.23
2023-01-29T05:43:15.825Z,9.93
2023-01-29T05:45:18.752Z,10.03
2023-01-29T05:47:23.125Z,9.43
2023-01-29T05:49:24.860Z,10.70
2023-01-29T05:51:28.923Z,10.00
2023-01-29T05:53:31.481Z,9.80
2023-01-29T05:55:33.177Z,10.03
2023-01-29T05:57:37.859Z,9.23
2023-01-29T05:59:42.321Z,10.00
2023-01-29T06:01:47.657Z,9.07
2023-01-29T06:03:49.709Z,10.27
2023-01-29T06:05:51.413Z,9.60
2023-01-29T06:07:53.066Z,9.47
2023-01-29T06:09:54.854Z,9.30
2023-01-29T06:11:56.661Z,9.90
2023-01-29T06:14:02.230Z,8.83
2023-01-29T06:16:14.200Z,9.33
2023-01-29T06:18:16.016Z,9.60
2023-01-29T06:20:20.085Z,10.50
2023-01-29T06:22:21.734Z,10.60
2023-01-29T06:24:25.899Z,11.30
2023-01-29T06:26:27.734Z,10.23
2023-01-29T06:28:30.905Z,10.50
2023-01-29T06:30:32.895Z,9.90
2023-01-29T06:32:36.913Z,9.63
2023-01-29T06:34:38.641Z,10.40
2023-01-29T06:36:43.078Z,10.00
2023-01-29T06:38:44.807Z,10.77
2023-01-29T06:40:46.575Z,11.10
2023-01-29T06:42:48.397Z,10.10
2023-01-29T06:44:50.060Z,10.40
2023-01-29T06:46:54.222Z,11.53
2023-01-29T06:49:00.174Z,11.70
2023-01-29T06:51:07.353Z,10.83
2023-01-29T06:53:09.247Z,11.20
2023-01-29T06:55:10.919Z,10.60
2023-01-29T06:57:13.226Z,10.60
2023-01-29T06:59:15.154Z,10.80
2023-01-29T07:01:33.389Z,11.20
2023-01-29T07:03:37.398Z,11.53
2023-01-29T07:05:41.185Z,10.87
2023-01-29T07:07:42.889Z,11.37
2023-01-29T07:09:44.611Z,12.57
2023-01-29T07:11:46.367Z,13.23
2023-01-29T07:13:48.044Z,13.93
2023-01-29T07:15:49.776Z,16.80
2023-01-29T07:18:02.310Z,14.13
2023-01-29T07:20:04.769Z,13.37
2023-01-29T07:22:06.543Z,13.43
2023-01-29T07:24:08.693Z,12.27
2023-01-29T07:26:14.116Z,13.83
2023-01-29T07:28:20.517Z,12.70
2023-01-29T07:30:22.526Z,12.43
2023-01-29T07:32:24.396Z,12.67
2023-01-29T07:34:28.313Z,13.97
2023-01-29T07:36:30.111Z,14.47
2023-01-29T07:38:31.837Z,14.57
2023-01-29T07:40:34.119Z,14.70
2023-01-29T07:42:36.055Z,14.73
2023-01-29T07:44:37.710Z,13.70
2023-01-29T07:46:41.758Z,14.37
2023-01-29T07:48:43.454Z,15.57
2023-01-29T07:50:45.327Z,13.67
2023-01-29T07:52:47.009Z,13.93
2023-01-29T07:54:51.486Z,14.20
2023-01-29T07:56:53.212Z,14.93
2023-01-29T07:58:54.847Z,15.80
2023-01-29T08:00:58.987Z,15.30
2023-01-29T08:03:30.924Z,14.17
2023-01-29T08:05:32.988Z,14.63
2023-01-29T08:07:34.723Z,16.50
2023-01-29T08:09:36.592Z,14.77
2023-01-29T08:11:38.282Z,15.20
2023-01-29T08:13:46.410Z,17.73
2023-01-29T08:15:48.160Z,15.20
2023-01-29T08:20:12.379Z,16.10
2023-01-29T08:22:16.404Z,14.97
2023-01-29T08:24:20.477Z,14.07
2023-01-29T08:26:22.288Z,14.47
2023-01-29T08:28:24.015Z,15.60
2023-01-29T08:30:30.017Z,14.97
2023-01-29T08:32:32.074Z,14.47
2023-01-29T08:34:33.799Z,14.73
2023-01-29T08:36:35.972Z,14.80
2023-01-29T08:38:37.771Z,13.70
2023-01-29T08:40:39.473Z,14.90
2023-01-29T08:42:41.969Z,14.77
2023-01-29T08:44:43.698Z,15.53
2023-01-29T08:46:45.323Z,16.10
2023-01-29T08:48:47.056Z,17.73
2023-01-29T08:50:52.060Z,17.83
2023-01-29T08:53:00.824Z,16.40
2023-01-29T08:55:02.494Z,17.80
2023-01-29T08:57:04.252Z,16.70
2023-01-29T08:59:05.962Z,16.30
2023-01-29T09:01:09.973Z,16.63
2023-01-29T09:03:14.387Z,16.77
2023-01-29T09:05:16.451Z,16.13
2023-01-29T09:07:18.411Z,17.13
2023-01-29T09:09:22.805Z,17.27
2023-01-29T09:11:27.065Z,17.67
2023-01-29T09:13:28.970Z,16.93
2023-01-29T09:15:31.061Z,15.80
2023-01-29T09:17:35.613Z,19.80
2023-01-29T09:19:37.288Z,18.63
2023-01-29T09:21:41.375Z,17.67
2023-01-29T09:23:48.377Z,16.00
2023-01-29T09:25:50.348Z,15.47
2023-01-29T09:27:54.883Z,17.77
2023-01-29T09:29:56.555Z,18.27
2023-01-29T09:32:00.933Z,16.57
2023-01-29T09:34:02.654Z,17.83
2023-01-29T09:36:05.170Z,16.87
2023-01-29T09:38:06.900Z,16.50
2023-01-29T09:40:23.694Z,17.70
2023-01-29T09:42:41.819Z,20.27
2023-01-29T09:45:08.856Z,17.80
2023-01-29T09:47:14.346Z,17.90
2023-01-29T09:49:31.493Z,18.23
2023-01-29T09:51:41.780Z,17.80
2023-01-29T09:53:54.604Z,20.40
2023-01-29T09:56:06.144Z,19.03
2023-01-29T09:58:27.787Z,18.53
2023-01-29T10:00:57.095Z,19.07
2023-01-29T10:03:16.880Z,19.47
2023-01-29T10:05:34.524Z,19.97
2023-01-29T10:07:55.579Z,18.63
2023-01-29T10:10:12.084Z,19.73
2023-01-29T10:12:33.045Z,20.00
2023-01-29T10:14:53.883Z,21.47
2023-01-29T10:17:48.983Z,22.23
2023-01-29T10:20:03.678Z,22.97
2023-01-29T10:22:32.326Z,22.47
2023-01-29T10:24:41.783Z,22.83
2023-01-29T10:26:43.827Z,23.33
2023-01-29T10:28:50.143Z,23.37
2023-01-29T10:30:57.795Z,24.00
2023-01-29T10:33:03.411Z,22.50
2023-01-29T10:35:26.504Z,23.10
2023-01-29T10:37:40.643Z,24.97
2023-01-29T10:39:42.483Z,26.77
2023-01-29T10:42:08.931Z,25.13
2023-01-29T10:44:51.294Z,25.63
2023-01-29T10:47:11.611Z,24.73
2023-01-29T10:49:48.920Z,25.27
2023-01-29T10:52:08.665Z,23.90
2023-01-29T10:54:19.324Z,23.97
2023-01-29T10:56:51.299Z,23.70
2023-01-29T10:59:09.311Z,24.63
2023-01-29T11:01:11.497Z,27.07
2023-01-29T11:03:27.987Z,27.60
2023-01-29T11:05:36.199Z,27.93
2023-01-29T11:07:37.972Z,26.87
2023-01-29T11:10:07.714Z,26.53
2023-01-29T11:12:17.589Z,29.17
2023-01-29T11:14:25.117Z,29.27
2023-01-29T11:16:29.936Z,25.83
2023-01-29T11:18:56.238Z,26.77
2023-01-29T11:21:03.579Z,26.63
2023-01-29T11:23:07.396Z,27.73
2023-01-29T11:25:20.411Z,27.07
2023-01-29T11:27:26.406Z,27.97
2023-01-29T11:29:28.768Z,27.10
2023-01-29T11:31:40.542Z,27.30
2023-01-29T11:33:46.762Z,29.07
2023-01-29T11:35:48.727Z,29.17
2023-01-29T11:37:50.867Z,28.07
2023-01-29T11:39:52.568Z,24.40
2023-01-29T11:42:05.214Z,28.30
2023-01-29T11:44:21.378Z,30.07
2023-01-29T11:46:23.064Z,29.37
2023-01-29T11:48:42.861Z,28.83
2023-01-29T11:50:52.035Z,27.80
2023-01-29T11:52:54.806Z,26.00
2023-01-29T11:55:06.930Z,28.20
2023-01-29T11:57:21.909Z,25.33
2023-01-29T11:59:51.900Z,25.57
2023-01-29T12:01:55.072Z,24.90
2023-01-29T12:03:59.196Z,29.37
2023-01-29T12:06:09.815Z,25.93
2023-01-29T12:08:18.084Z,25.33
2023-01-29T12:10:39.134Z,30.17
2023-01-29T12:12:43.623Z,29.23
2023-01-29T12:14:45.426Z,29.50
2023-01-29T12:17:15.468Z,27.43
2023-01-29T12:19:38.639Z,28.27
2023-01-29T12:21:49.721Z,27.70
2023-01-29T12:24:12.488Z,29.47
2023-01-29T12:26:30.810Z,29.80
2023-01-29T12:28:56.114Z,30.93
2023-01-29T12:31:21.224Z,30.30
2023-01-29T12:33:48.852Z,28.77
2023-01-29T12:36:00.219Z,31.13
2023-01-29T12:38:20.377Z,29.43
2023-01-29T12:40:26.915Z,28.33
2023-01-29T12:42:31.280Z,29.30
2023-01-29T12:44:44.912Z,30.60
2023-01-29T12:46:52.811Z,31.87
2023-01-29T12:49:00.663Z,35.17
2023-01-29T12:51:17.310Z,36.67
2023-01-29T12:53:37.146Z,34.07
2023-01-29T12:55:44.552Z,37.20
2023-01-29T12:57:49.323Z,35.77
2023-01-29T12:59:59.962Z,34.33
2023-01-29T13:02:27.894Z,34.20
2023-01-29T13:04:32.952Z,35.10
2023-01-29T13:06:41.532Z,35.40
2023-01-29T13:08:53.909Z,33.30
2023-01-29T13:10:58.527Z,33.43
2023-01-29T13:13:22.826Z,33.50
2023-01-29T13:15:31.220Z,33.97
2023-01-29T13:17:37.977Z,36.87
2023-01-29T13:19:45.476Z,37.27
2023-01-29T13:21:48.055Z,33.37
2023-01-29T13:24:34.611Z,35.33
2023-01-29T13:26:36.929Z,34.93
2023-01-29T13:28:39.427Z,34.67
2023-01-29T13:30:41.165Z,36.30
2023-01-29T13:32:50.741Z,33.63
2023-01-29T13:35:01.032Z,34.27
2023-01-29T13:37:15.054Z,36.53
2023-01-29T13:39:29.364Z,36.80
2023-01-29T13:41:41.510Z,36.73
2023-01-29T13:43:48.897Z,32.87
2023-01-29T13:45:53.874Z,31.93
2023-01-29T13:48:09.558Z,36.60
2023-01-29T13:50:39.989Z,36.80
2023-01-29T13:52:44.999Z,35.77
2023-01-29T13:54:58.672Z,34.53
2023-01-29T13:57:03.638Z,36.83
2023-01-29T13:59:07.027Z,34.53
2023-01-29T14:01:08.839Z,37.57
2023-01-29T14:03:13.256Z,32.93
2023-01-29T14:05:30.247Z,36.00
2023-01-29T14:07:51.411Z,30.73
2023-01-29T14:10:14.278Z,34.50
2023-01-29T14:12:24.132Z,32.97
2023-01-29T14:14:47.672Z,33.63
2023-01-29T14:16:50.144Z,34.33
2023-01-29T14:19:01.455Z,32.07
2023-01-29T14:21:19.169Z,34.00
2023-01-29T14:23:36.653Z,32.23
2023-01-29T14:25:40.682Z,30.13
2023-01-29T14:27:47.718Z,35.40
2023-01-29T14:29:51.791Z,32.20
2023-01-29T14:32:01.021Z,35.10
2023-01-29T14:34:15.058Z,32.93
2023-01-29T14:36:21.045Z,33.03
2023-01-29T14:38:25.546Z,34.07
2023-01-29T14:40:29.672Z,33.27
2023-01-29T14:42:53.049Z,34.33
2023-01-29T14:44:54.836Z,33.30
2023-01-29T14:46:59.822Z,32.47
2023-01-29T14:49:02.530Z,34.67
2023-01-29T14:51:16.633Z,35.53
2023-01-29T14:53:40.170Z,31.33
2023-01-29T14:55:59.518Z,31.93
2023-01-29T14:58:03.200Z,33.80
2023-01-29T15:00:13.326Z,33.33
2023-01-29T15:02:22.342Z,31.20
2023-01-29T15:04:28.725Z,33.70
2023-01-29T15:06:48.569Z,30.10
2023-01-29T15:09:22.077Z,32.23
2023-01-29T15:11:40.305Z,31.13
2023-01-29T15:13:57.031Z,32.07
2023-01-29T15:16:13.291Z,32.83
2023-01-29T15:18:22.008Z,33.00
2023-01-29T15:20:32.772Z,34.03
2023-01-29T15:22:43.781Z,33.67
2023-01-29T15:24:47.881Z,34.70
2023-01-29T15:26:49.823Z,32.63
2023-01-29T15:29:05.190Z,35.70
2023-01-29T15:31:18.091Z,33.33
2023-01-29T15:33:20.269Z,36.13
2023-01-29T15:35:37.449Z,33.57
2023-01-29T15:37:40.118Z,33.07
2023-01-29T15:39:46.394Z,35.57
2023-01-29T15:41:51.568Z,32.77
2023-01-29T15:44:02.378Z,33.27
2023-01-29T15:46:12.523Z,35.00
2023-01-29T15:48:19.903Z,34.53
2023-01-29T15:50:25.097Z,35.70
2023-01-29T15:52:35.153Z,36.37
2023-01-29T15:54:36.897Z,38.17
2023-01-29T15:56:43.201Z,36.37
2023-01-29T15:58:51.063Z,36.07
2023-01-29T16:00:57.578Z,37.53
2023-01-29T16:03:02.725Z,39.83
2023-01-29T16:05:18.354Z,39.67
2023-01-29T16:07:22.138Z,41.23
2023-01-29T16:09:26.181Z,38.27
2023-01-29T16:11:28.181Z,39.90
2023-01-29T16:13:35.906Z,37.63
2023-01-29T16:15:53.504Z,38.90
2023-01-29T16:17:59.953Z,35.43
2023-01-29T16:20:05.294Z,35.47
2023-01-29T16:22:08.957Z,42.83
2023-01-29T16:24:15.941Z,41.33
2023-01-29T16:26:21.296Z,38.73
2023-01-29T16:28:23.098Z,37.40
2023-01-29T16:30:28.960Z,36.13
2023-01-29T16:32:32.340Z,37.87
2023-01-29T16:34:40.026Z,39.13
2023-01-29T16:36:48.626Z,40.80
2023-01-29T16:39:02.584Z,42.77
2023-01-29T16:41:18.701Z,40.07
2023-01-29T16:43:26.200Z,37.77
2023-01-29T16:45:32.091Z,35.03
2023-01-29T16:47:37.746Z,35.73
2023-01-29T16:49:39.650Z,35.97
2023-01-29T16:51:41.762Z,39.27
2023-01-29T16:54:17.373Z,35.47
2023-01-29T16:56:33.564Z,35.80
2023-01-29T16:58:35.782Z,36.53
2023-01-29T17:00:40.389Z,36.93
2023-01-29T17:02:43.173Z,37.20
2023-01-29T17:04:47.461Z,36.73
2023-01-29T17:06:55.214Z,35.97
2023-01-29T17:08:57.087Z,37.93
2023-01-29T17:11:02.407Z,38.57
2023-01-29T17:13:09.936Z,38.07
2023-01-29T17:15:31.920Z,38.13
2023-01-29T17:17:37.051Z,35.03
2023-01-29T17:19:39.786Z,38.10
2023-01-29T17:21:41.489Z,36.57
2023-01-29T17:23:43.204Z,36.90
2023-01-29T17:25:46.346Z,36.40
2023-01-29T17:27:52.175Z,40.20
2023-01-29T17:29:56.439Z,38.03
2023-01-29T17:32:00.016Z,40.50
2023-01-29T17:34:04.414Z,38.43
2023-01-29T17:36:06.598Z,39.07
2023-01-29T17:38:24.241Z,38.60
2023-01-29T17:40:38.770Z,37.57
2023-01-29T17:42:41.304Z,37.83
2023-01-29T17:44:44.428Z,39.67
2023-01-29T17:46:47.476Z,39.63
2023-01-29T17:48:49.359Z,36.80
2023-01-29T17:50:54.332Z,37.00
2023-01-29T17:52:56.185Z,36.53
2023-01-29T17:54:59.528Z,37.67
2023-01-29T17:57:01.383Z,38.43
2023-01-29T17:59:16.207Z,37.27
2023-01-29T18:01:20.293Z,37.20
2023-01-29T18:03:26.428Z,36.23
2023-01-29T18:05:29.608Z,37.63
2023-01-29T18:07:31.554Z,39.97
2023-01-29T18:09:37.481Z,39.70
2023-01-29T18:11:39.390Z,42.20
2023-01-29T18:13:45.417Z,41.17
2023-01-29T18:15:50.740Z,44.53
2023-01-29T18:17:54.481Z,38.50
2023-01-29T18:19:58.129Z,42.87
2023-01-29T18:22:02.414Z,40.27
2023-01-29T18:24:04.357Z,41.10
2023-01-29T18:26:07.431Z,40.80
2023-01-29T18:28:20.104Z,44.37
2023-01-29T18:30:21.866Z,44.17
2023-01-29T18:32:23.577Z,40.90
2023-01-29T18:34:25.453Z,42.23
2023-01-29T18:36:27.315Z,42.87
2023-01-29T18:38:29.392Z,40.27
2023-01-29T18:40:32.186Z,39.27
2023-01-29T18:42:35.860Z,42.60
2023-01-29T18:44:37.732Z,38.83
2023-01-29T18:46:39.469Z,39.57
2023-01-29T18:48:42.780Z,39.40
2023-01-29T18:50:44.758Z,39.80
2023-01-29T18:52:46.507Z,39.27
2023-01-29T18:54:48.506Z,40.40
2023-01-29T18:57:08.783Z,40.13
2023-01-29T18:59:14.689Z,41.90
2023-01-29T19:01:16.391Z,40.60
2023-01-29T19:03:18.179Z,42.00
2023-01-29T19:05:24.464Z,38.80
2023-01-29T19:07:26.483Z,37.73
2023-01-29T19:09:28.229Z,38.93
2023-01-29T19:11:31.079Z,40.47
2023-01-29T19:13:36.275Z,37.90
2023-01-29T19:15:42.032Z,40.07
2023-01-29T19:17:43.780Z,40.80
2023-01-29T19:19:45.451Z,36.37
2023-01-29T19:21:47.201Z,42.90
2023-01-29T19:23:49.018Z,39.27
2023-01-29T19:25:50.951Z,37.23
2023-01-29T19:27:52.891Z,36.37
2023-01-29T19:30:02.071Z,38.97
2023-01-29T19:32:03.863Z,37.57
2023-01-29T19:34:05.541Z,41.40
2023-01-29T19:36:09.897Z,40.93
2023-01-29T19:38:11.637Z,37.10
2023-01-29T19:40:13.652Z,35.23
2023-01-29T19:42:17.534Z,34.53
2023-01-29T19:44:20.404Z,38.53
2023-01-29T19:46:22.145Z,37.97
2023-01-29T19:48:23.892Z,33.20
2023-01-29T19:50:25.580Z,42.23
2023-01-29T19:52:50.383Z,43.70
2023-01-29T19:54:53.060Z,38.93
2023-01-29T19:56:57.963Z,35.63
2023-01-29T19:58:59.601Z,40.67
2023-01-29T20:01:07.304Z,33.13
2023-01-29T20:03:09.000Z,39.03
2023-01-29T20:05:16.818Z,33.87
2023-01-29T20:07:19.780Z,36.63
2023-01-29T20:09:21.534Z,32.33
2023-01-29T20:11:24.023Z,35.47
2023-01-29T20:13:26.447Z,33.77
2023-01-29T20:15:28.137Z,37.37
2023-01-29T20:17:29.955Z,34.70
2023-01-29T20:19:31.607Z,36.37
2023-01-29T20:21:33.403Z,36.90
2023-01-29T20:23:38.428Z,39.83
2023-01-29T20:25:40.982Z,40.80
2023-01-29T20:27:42.661Z,36.63
2023-01-29T20:29:45.295Z,36.53
2023-01-29T20:31:47.086Z,36.73
2023-01-29T20:33:48.825Z,36.30
2023-01-29T20:35:57.907Z,37.83
2023-01-29T20:37:59.895Z,38.20
2023-01-29T20:40:02.817Z,39.33
2023-01-29T20:42:04.713Z,33.77
2023-01-29T20:44:06.554Z,35.20
2023-01-29T20:46:09.072Z,37.87
2023-01-29T20:48:12.905Z,36.67
2023-01-29T20:50:18.582Z,39.13
2023-01-29T20:52:21.080Z,36.80
2023-01-29T20:54:23.086Z,35.23
2023-01-29T20:56:36.691Z,34.93
2023-01-29T20:58:46.449Z,36.80
2023-01-29T21:00:48.336Z,33.90
2023-01-29T21:02:50.103Z,38.83
2023-01-29T21:04:52.211Z,36.13
2023-01-29T21:06:53.927Z,35.03
2023-01-29T21:08:55.988Z,35.87
2023-01-29T21:10:57.941Z,38.90
2023-01-29T21:12:59.989Z,38.83
2023-01-29T21:15:04.346Z,37.13
2023-01-29T21:17:06.499Z,35.23
2023-01-29T21:19:09.915Z,34.80
2023-01-29T21:21:11.745Z,33.03
2023-01-29T21:23:13.466Z,35.20
2023-01-29T21:25:20.166Z,32.43
2023-01-29T21:27:22.118Z,33.23
2023-01-29T21:29:27.105Z,34.30
2023-01-29T21:31:28.917Z,36.47
2023-01-29T21:33:34.131Z,35.27
2023-01-29T21:35:37.742Z,32.33
2023-01-29T21:37:39.491Z,33.67
2023-01-29T21:39:41.376Z,32.73
2023-01-29T21:42:02.793Z,32.00
2023-01-29T21:44:04.503Z,30.67
2023-01-29T21:46:13.999Z,34.57
2023-01-29T21:48:24.490Z,35.30
2023-01-29T21:50:26.141Z,30.50
2023-01-29T21:52:27.850Z,33.43
2023-01-29T21:54:31.147Z,32.10
2023-01-29T21:56:32.943Z,35.03
2023-01-29T21:58:34.672Z,31.10
2023-01-29T22:00:39.132Z,32.57
2023-01-29T22:02:40.977Z,33.83
2023-01-29T22:04:42.962Z,32.47
2023-01-29T22:06:49.741Z,34.80
2023-01-29T22:08:51.440Z,34.97
2023-01-29T22:10:53.216Z,34.90
2023-01-29T22:12:55.203Z,33.50
2023-01-29T22:14:57.040Z,32.50
2023-01-29T22:17:00.095Z,33.00
2023-01-29T22:19:04.179Z,30.57
2023-01-29T22:21:06.116Z,32.00
2023-01-29T22:23:12.438Z,33.60
2023-01-29T22:25:19.763Z,32.63
2023-01-29T22:27:21.669Z,37.77
2023-01-29T22:29:23.401Z,34.00
2023-01-29T22:31:25.204Z,34.33
2023-01-29T22:33:26.961Z,32.13
2023-01-29T22:35:28.696Z,36.07
2023-01-29T22:37:30.493Z,33.30
2023-01-29T22:39:32.206Z,35.80
2023-01-29T22:41:34.526Z,36.57
2023-01-29T22:43:36.571Z,36.93
2023-01-29T22:45:39.444Z,38.23
2023-01-29T22:47:41.251Z,35.17
2023-01-29T22:49:45.503Z,34.43
2023-01-29T22:51:48.000Z,40.80
2023-01-29T22:53:51.031Z,32.47
2023-01-29T22:55:55.836Z,36.93
2023-01-29T22:58:00.116Z,32.87
2023-01-29T23:00:02.654Z,35.33
2023-01-29T23:02:05.074Z,35.73
2023-01-29T23:04:06.726Z,32.23
2023-01-29T23:06:08.477Z,37.10
2023-01-29T23:08:10.206Z,36.03
2023-01-29T23:10:14.852Z,37.50
2023-01-29T23:12:17.660Z,35.90
2023-01-29T23:14:19.475Z,38.87
2023-01-29T23:16:26.940Z,35.33
2023-01-29T23:18:32.644Z,38.47
2023-01-29T23:20:34.893Z,40.33
2023-01-29T23:22:36.608Z,38.60
2023-01-29T23:24:38.372Z,36.53
2023-01-29T23:26:58.550Z,41.07
2023-01-29T23:29:06.624Z,42.93
2023-01-29T23:31:08.308Z,43.73
2023-01-29T23:33:12.145Z,42.53
2023-01-29T23:35:14.138Z,40.20
2023-01-29T23:37:16.083Z,42.77
2023-01-29T23:39:17.859Z,40.67
2023-01-29T23:41:22.278Z,39.13
2023-01-29T23:43:30.921Z,41.33
2023-01-29T23:45:32.681Z,41.53
2023-01-29T23:47:34.570Z,38.37
2023-01-29T23:49:37.244Z,39.40
2023-01-29T23:51:38.974Z,42.73
2023-01-29T23:53:41.938Z,39.73
2023-01-29T23:55:44.120Z,38.63
2023-01-29T23:57:45.862Z,38.53
2023-01-29T23:59:47.547Z,40.87
